createdAt,value
2019-04-30T00:00:34.711Z,12.40
2019-04-30T00:03:15.936Z,12.40
2019-04-30T00:05:45.076Z,12.40
2019-04-30T00:08:16.048Z,12.30
2019-04-30T00:10:46.483Z,12.30
2019-04-30T00:13:20.719Z,12.30
2019-04-30T00:15:52.709Z,12.30
2019-04-30T00:18:21.347Z,12.30
2019-04-30T00:20:51.648Z,12.30
2019-04-30T00:23:22.694Z,12.20
2019-04-30T00:25:58.181Z,12.20
2019-04-30T00:28:26.692Z,12.20
2019-04-30T00:30:57.183Z,12.20
2019-04-30T00:33:27.770Z,12.20
2019-04-30T00:35:58.242Z,12.20
2019-04-30T00:38:29.473Z,12.20
2019-04-30T00:41:01.895Z,12.20
2019-04-30T00:43:32.842Z,12.10
2019-04-30T00:46:04.934Z,12.20
2019-04-30T00:48:35.754Z,12.20
2019-04-30T00:51:07.588Z,12.10
2019-04-30T00:53:38.360Z,12.10
2019-04-30T00:56:08.731Z,12.10
2019-04-30T00:58:39.060Z,12.20
2019-04-30T01:01:22.646Z,12.20
2019-04-30T01:03:58.780Z,12.20
2019-04-30T01:06:29.238Z,12.20
2019-04-30T01:09:05.405Z,12.20
2019-04-30T01:11:31.676Z,12.10
2019-04-30T01:14:02.111Z,12.20
2019-04-30T01:16:33.201Z,12.20
2019-04-30T01:19:05.826Z,12.20
2019-04-30T01:21:41.784Z,12.20
2019-04-30T01:24:08.976Z,12.20
2019-04-30T01:26:39.882Z,12.20
2019-04-30T01:29:10.363Z,12.20
2019-04-30T01:31:40.887Z,12.20
2019-04-30T01:34:14.029Z,12.20
2019-04-30T01:36:47.303Z,12.20
2019-04-30T01:39:15.604Z,12.20
2019-04-30T01:41:46.091Z,12.10
2019-04-30T01:44:16.735Z,12.20
2019-04-30T01:46:50.205Z,12.10
2019-04-30T01:49:25.610Z,12.20
2019-04-30T01:51:57.323Z,12.20
2019-04-30T01:54:25.415Z,12.20
2019-04-30T01:57:16.069Z,12.20
2019-04-30T02:00:02.608Z,12.10
2019-04-30T02:02:35.067Z,12.10
2019-04-30T02:05:06.078Z,12.20
2019-04-30T02:07:36.506Z,12.20
2019-04-30T02:10:08.757Z,12.20
2019-04-30T02:12:39.540Z,12.20
2019-04-30T02:15:09.811Z,12.20
2019-04-30T02:17:40.367Z,12.20
2019-04-30T02:20:10.900Z,12.20
2019-04-30T02:22:41.439Z,12.10
2019-04-30T02:25:11.900Z,12.10
2019-04-30T02:27:42.343Z,12.00
2019-04-30T02:30:12.677Z,12.00
2019-04-30T02:32:43.354Z,12.00
2019-04-30T02:35:30.746Z,12.10
2019-04-30T02:38:14.725Z,12.20
2019-04-30T02:40:45.620Z,12.10
2019-04-30T02:43:16.636Z,12.10
2019-04-30T02:45:49.933Z,12.00
2019-04-30T02:48:23.001Z,12.00
2019-04-30T02:50:54.523Z,12.00
2019-04-30T02:54:23.976Z,12.00
2019-04-30T02:56:59.424Z,12.00
2019-04-30T02:59:30.087Z,12.00
2019-04-30T03:02:01.182Z,12.00
2019-04-30T03:04:31.720Z,12.00
2019-04-30T03:07:02.220Z,12.10
2019-04-30T03:09:33.140Z,12.10
2019-04-30T03:12:03.711Z,12.00
2019-04-30T03:14:34.053Z,11.90
2019-04-30T03:17:29.404Z,12.00
2019-04-30T03:20:10.727Z,12.10
2019-04-30T03:22:42.465Z,12.00
2019-04-30T03:25:19.313Z,12.00
2019-04-30T03:27:49.958Z,12.00
2019-04-30T03:30:21.911Z,12.00
2019-04-30T03:32:56.782Z,12.00
2019-04-30T03:35:24.654Z,12.00
2019-04-30T03:37:55.105Z,12.00
2019-04-30T03:40:25.471Z,12.00
2019-04-30T03:42:55.984Z,12.00
2019-04-30T03:45:26.263Z,12.00
2019-04-30T03:47:56.615Z,12.00
2019-04-30T03:50:31.539Z,12.10
2019-04-30T03:53:00.605Z,12.10
2019-04-30T03:55:31.113Z,12.10
2019-04-30T03:58:01.563Z,12.20
2019-04-30T04:00:42.176Z,12.10
2019-04-30T04:03:11.769Z,12.20
2019-04-30T04:05:49.585Z,12.10
2019-04-30T04:08:29.520Z,12.00
2019-04-30T04:11:10.147Z,12.00
2019-04-30T04:13:40.630Z,12.00
2019-04-30T04:16:10.966Z,12.00
2019-04-30T04:18:41.595Z,12.00
2019-04-30T04:21:16.733Z,12.00
2019-04-30T04:23:44.242Z,12.00
2019-04-30T04:26:14.694Z,12.00
2019-04-30T04:28:45.156Z,12.10
2019-04-30T04:31:15.555Z,12.00
2019-04-30T04:33:46.203Z,12.10
2019-04-30T04:36:16.536Z,12.10
2019-04-30T04:38:47.016Z,12.00
2019-04-30T04:41:19.601Z,12.10
2019-04-30T04:43:50.387Z,12.10
2019-04-30T04:46:20.997Z,12.20
2019-04-30T04:48:51.565Z,12.20
2019-04-30T04:51:36.708Z,12.10
2019-04-30T04:53:54.130Z,12.10
2019-04-30T04:56:24.407Z,12.20
2019-04-30T04:58:55.191Z,12.20
2019-04-30T05:01:25.516Z,12.20
2019-04-30T05:03:56.123Z,12.20
2019-04-30T05:06:26.451Z,12.10
2019-04-30T05:08:57.015Z,12.10
2019-04-30T05:11:31.382Z,12.00
2019-04-30T05:13:59.683Z,12.10
2019-04-30T05:16:30.104Z,12.10
2019-04-30T05:19:01.167Z,12.10
2019-04-30T05:21:41.902Z,12.20
2019-04-30T05:24:04.164Z,12.20
2019-04-30T05:26:34.527Z,12.20
2019-04-30T05:29:04.988Z,12.20
2019-04-30T05:31:35.291Z,12.20
2019-04-30T05:34:06.442Z,12.20
2019-04-30T05:36:38.734Z,12.20
2019-04-30T05:39:08.983Z,12.30
2019-04-30T05:41:41.120Z,12.20
2019-04-30T05:44:11.740Z,12.30
2019-04-30T05:46:41.995Z,12.40
2019-04-30T05:49:12.390Z,12.40
2019-04-30T05:51:52.774Z,12.40
2019-04-30T05:54:14.863Z,12.40
2019-04-30T05:56:45.283Z,12.40
2019-04-30T05:59:15.869Z,12.40
2019-04-30T06:01:48.746Z,12.40
2019-04-30T06:04:19.384Z,12.40
2019-04-30T06:06:49.831Z,12.40
2019-04-30T06:09:48.598Z,12.50
2019-04-30T06:12:47.059Z,12.50
2019-04-30T06:15:42.688Z,12.50
2019-04-30T06:18:13.972Z,12.50
2019-04-30T06:20:45.120Z,12.60
2019-04-30T06:23:15.487Z,12.60
2019-04-30T06:25:57.408Z,12.60
2019-04-30T06:28:19.581Z,12.60
2019-04-30T06:30:50.399Z,12.60
2019-04-30T06:33:21.051Z,12.60
2019-04-30T06:35:51.810Z,12.60
2019-04-30T06:38:22.316Z,12.60
2019-04-30T06:40:52.804Z,12.60
2019-04-30T06:43:23.454Z,12.60
2019-04-30T06:45:54.282Z,12.50
2019-04-30T06:48:25.931Z,12.40
2019-04-30T06:50:56.549Z,12.40
2019-04-30T06:53:29.080Z,12.50
2019-04-30T06:55:59.246Z,12.50
2019-04-30T06:58:29.535Z,12.60
2019-04-30T07:01:00.099Z,12.50
2019-04-30T07:03:30.415Z,12.60
2019-04-30T07:06:01.137Z,12.60
2019-04-30T07:08:55.597Z,12.60
2019-04-30T07:11:39.605Z,12.60
2019-04-30T07:14:10.479Z,12.50
2019-04-30T07:16:40.983Z,12.50
2019-04-30T07:19:11.314Z,12.60
2019-04-30T07:21:45.108Z,12.70
2019-04-30T07:24:14.339Z,12.70
2019-04-30T07:26:45.126Z,12.60
2019-04-30T07:29:15.591Z,12.70
2019-04-30T07:31:46.178Z,12.80
2019-04-30T07:34:16.604Z,12.80
2019-04-30T07:36:51.461Z,12.80
2019-04-30T07:39:19.372Z,12.90
2019-04-30T07:41:51.427Z,13.00
2019-04-30T07:44:31.005Z,13.00
2019-04-30T07:46:54.332Z,13.20
2019-04-30T07:49:24.822Z,13.20
2019-04-30T07:51:56.114Z,13.10
2019-04-30T07:54:26.921Z,13.10
2019-04-30T07:57:00.222Z,13.10
2019-04-30T07:59:30.242Z,13.20
2019-04-30T08:02:10.042Z,13.30
2019-04-30T08:04:51.300Z,13.40
2019-04-30T08:07:22.383Z,13.40
2019-04-30T08:09:52.739Z,13.50
2019-04-30T08:12:30.050Z,13.50
2019-04-30T08:14:55.259Z,13.90
2019-04-30T08:17:25.733Z,14.60
2019-04-30T08:19:56.179Z,15.00
2019-04-30T08:22:26.527Z,15.20
2019-04-30T08:24:58.680Z,15.30
2019-04-30T08:27:29.671Z,15.20
2019-04-30T08:29:59.939Z,14.80
2019-04-30T08:32:30.303Z,14.30
2019-04-30T08:35:01.199Z,14.30
2019-04-30T08:37:31.747Z,14.30
2019-04-30T08:40:03.535Z,14.20
2019-04-30T08:42:39.762Z,14.50
2019-04-30T08:45:10.655Z,15.10
2019-04-30T08:47:41.129Z,15.40
2019-04-30T08:50:20.025Z,15.50
2019-04-30T08:52:53.495Z,15.30
2019-04-30T08:55:24.034Z,15.40
2019-04-30T08:58:09.697Z,15.30
2019-04-30T09:00:32.338Z,15.30
2019-04-30T09:03:02.872Z,15.10
2019-04-30T09:05:50.887Z,15.50
2019-04-30T09:08:21.441Z,15.90
2019-04-30T09:10:51.846Z,16.10
2019-04-30T09:13:22.396Z,15.90
2019-04-30T09:15:52.663Z,16.00
2019-04-30T09:18:23.059Z,15.50
2019-04-30T09:20:53.374Z,15.80
2019-04-30T09:23:23.746Z,15.90
2019-04-30T09:25:54.262Z,15.80
2019-04-30T09:28:24.627Z,15.80
2019-04-30T09:30:55.085Z,15.90
2019-04-30T09:33:25.520Z,15.80
2019-04-30T09:35:55.958Z,15.90
2019-04-30T09:38:26.410Z,16.10
2019-04-30T09:40:56.848Z,16.10
2019-04-30T09:43:28.597Z,16.20
2019-04-30T09:45:59.364Z,16.30
2019-04-30T09:48:30.623Z,16.40
2019-04-30T09:51:01.665Z,16.00
2019-04-30T09:53:32.523Z,16.10
2019-04-30T09:56:03.180Z,16.10
2019-04-30T09:58:33.427Z,16.30
2019-04-30T10:01:04.001Z,16.20
2019-04-30T10:03:35.317Z,16.40
2019-04-30T10:06:06.237Z,16.40
2019-04-30T10:08:47.790Z,16.40
2019-04-30T10:11:30.746Z,16.40
2019-04-30T10:14:01.059Z,16.30
2019-04-30T10:16:39.089Z,16.30
2019-04-30T10:19:10.256Z,16.40
2019-04-30T10:21:40.763Z,16.40
2019-04-30T10:24:15.458Z,16.50
2019-04-30T10:26:43.101Z,16.50
2019-04-30T10:29:13.418Z,16.50
2019-04-30T10:31:44.176Z,16.60
2019-04-30T10:34:14.640Z,16.60
2019-04-30T10:36:45.181Z,16.50
2019-04-30T10:39:15.634Z,16.60
2019-04-30T10:41:46.022Z,16.50
2019-04-30T10:44:16.353Z,16.50
2019-04-30T10:46:46.779Z,16.50
2019-04-30T10:49:18.939Z,16.60
2019-04-30T10:51:49.115Z,16.30
2019-04-30T10:54:25.712Z,16.40
2019-04-30T10:56:51.545Z,16.60
2019-04-30T10:59:21.931Z,16.50
2019-04-30T11:01:52.598Z,16.50
2019-04-30T11:04:22.883Z,16.40
2019-04-30T11:06:53.486Z,16.40
2019-04-30T11:09:24.004Z,16.50
2019-04-30T11:11:54.389Z,16.30
2019-04-30T11:14:24.654Z,16.60
2019-04-30T11:16:55.134Z,16.70
2019-04-30T11:19:25.704Z,16.70
2019-04-30T11:21:56.232Z,16.70
2019-04-30T11:24:36.000Z,16.70
2019-04-30T11:27:01.949Z,16.70
2019-04-30T11:29:32.736Z,16.70
2019-04-30T11:32:12.733Z,16.80
2019-04-30T11:34:43.167Z,16.80
2019-04-30T11:37:13.824Z,16.80
2019-04-30T11:39:44.287Z,16.70
2019-04-30T11:42:14.883Z,16.70
2019-04-30T11:44:45.164Z,16.70
2019-04-30T11:47:31.429Z,16.90
2019-04-30T11:50:02.094Z,16.80
2019-04-30T11:52:32.574Z,16.80
2019-04-30T11:55:02.986Z,17.00
2019-04-30T11:57:33.404Z,17.00
2019-04-30T12:00:04.759Z,17.20
2019-04-30T12:02:41.124Z,17.00
2019-04-30T12:05:13.843Z,16.90
2019-04-30T12:07:50.723Z,16.70
2019-04-30T12:10:58.318Z,16.80
2019-04-30T12:13:32.237Z,17.00
2019-04-30T12:16:02.867Z,16.90
2019-04-30T12:18:33.376Z,17.00
2019-04-30T12:21:03.764Z,16.90
2019-04-30T12:23:34.202Z,17.00
2019-04-30T12:26:04.531Z,17.00
2019-04-30T12:28:34.863Z,16.90
2019-04-30T12:31:05.976Z,17.10
2019-04-30T12:33:36.733Z,17.00
2019-04-30T12:36:08.909Z,17.00
2019-04-30T12:38:39.204Z,17.10
2019-04-30T12:41:09.578Z,17.20
2019-04-30T12:43:40.039Z,17.10
2019-04-30T12:46:10.506Z,17.00
2019-04-30T12:48:59.984Z,17.10
2019-04-30T12:51:58.781Z,17.20
2019-04-30T12:54:37.717Z,17.40
2019-04-30T12:57:21.423Z,17.30
2019-04-30T12:59:51.869Z,17.40
2019-04-30T13:02:22.274Z,17.30
2019-04-30T13:04:52.701Z,17.40
2019-04-30T13:07:24.570Z,17.40
2019-04-30T13:09:55.948Z,17.60
2019-04-30T13:12:27.303Z,17.70
2019-04-30T13:14:58.367Z,17.70
2019-04-30T13:17:28.893Z,17.70
2019-04-30T13:19:59.391Z,17.80
2019-04-30T13:22:29.771Z,17.70
2019-04-30T13:25:00.397Z,17.80
2019-04-30T13:27:33.678Z,17.90
2019-04-30T13:30:13.213Z,17.90
2019-04-30T13:33:05.566Z,18.00
2019-04-30T13:35:36.285Z,18.10
2019-04-30T13:38:29.850Z,18.20
2019-04-30T13:41:18.733Z,18.20
2019-04-30T13:44:06.154Z,18.40
2019-04-30T13:46:36.626Z,18.40
2019-04-30T13:49:07.203Z,18.40
2019-04-30T13:51:37.657Z,18.40
2019-04-30T13:54:08.039Z,18.50
2019-04-30T13:56:39.685Z,18.70
2019-04-30T13:59:10.111Z,18.80
2019-04-30T14:01:40.694Z,18.80
2019-04-30T14:04:35.827Z,18.70
2019-04-30T14:07:25.797Z,18.90
2019-04-30T14:09:56.846Z,19.00
2019-04-30T14:12:27.387Z,19.20
2019-04-30T14:14:59.140Z,19.10
2019-04-30T14:17:29.809Z,19.00
2019-04-30T14:20:00.476Z,19.20
2019-04-30T14:22:30.875Z,19.30
2019-04-30T14:25:01.929Z,19.40
2019-04-30T14:27:32.395Z,19.50
2019-04-30T14:30:03.847Z,19.70
2019-04-30T14:32:34.678Z,19.90
2019-04-30T14:35:05.794Z,19.90
2019-04-30T14:37:36.119Z,19.90
2019-04-30T14:40:09.839Z,20.30
2019-04-30T14:42:45.160Z,20.40
2019-04-30T14:45:21.376Z,25.60
2019-04-30T14:48:01.201Z,26.50
2019-04-30T14:50:31.434Z,29.70
2019-04-30T14:53:10.730Z,31.60
2019-04-30T14:56:08.539Z,31.70
2019-04-30T14:59:01.887Z,35.00
2019-04-30T15:04:33.119Z,34.70
2019-04-30T15:07:06.047Z,35.90
2019-04-30T15:09:36.468Z,35.10
2019-04-30T15:12:07.479Z,37.50
2019-04-30T15:14:38.822Z,36.60
2019-04-30T15:17:10.009Z,33.40
2019-04-30T15:19:40.466Z,28.50
2019-04-30T15:22:11.965Z,27.60
2019-04-30T15:24:42.375Z,31.10
2019-04-30T15:27:12.841Z,33.60
2019-04-30T15:29:43.240Z,34.50
2019-04-30T15:32:13.961Z,28.60
2019-04-30T15:34:49.065Z,25.90
2019-04-30T15:37:23.683Z,25.30
2019-04-30T15:39:52.832Z,24.20
2019-04-30T15:42:23.785Z,22.90
2019-04-30T15:44:54.268Z,22.90
2019-04-30T15:47:24.933Z,22.90
2019-04-30T15:49:55.304Z,22.60
2019-04-30T15:52:25.774Z,21.90
2019-04-30T15:54:56.120Z,21.90
2019-04-30T15:57:26.847Z,21.90
2019-04-30T15:59:57.261Z,21.60
2019-04-30T16:02:57.328Z,21.60
2019-04-30T16:05:39.731Z,21.60
2019-04-30T16:08:35.327Z,21.50
2019-04-30T16:11:12.749Z,21.10
2019-04-30T16:14:20.443Z,20.70
2019-04-30T16:17:12.765Z,20.90
2019-04-30T16:19:43.130Z,20.80
2019-04-30T16:22:13.555Z,20.50
2019-04-30T16:24:44.006Z,20.40
2019-04-30T16:27:14.417Z,20.20
2019-04-30T16:29:44.931Z,20.00
2019-04-30T16:32:15.835Z,20.10
2019-04-30T16:34:46.738Z,20.00
2019-04-30T16:37:19.994Z,20.00
2019-04-30T16:39:49.221Z,20.20
2019-04-30T16:42:19.543Z,20.10
2019-04-30T16:44:49.828Z,20.00
2019-04-30T16:47:20.261Z,19.70
2019-04-30T16:49:50.636Z,19.70
2019-04-30T16:52:21.133Z,19.80
2019-04-30T16:54:51.423Z,19.90
2019-04-30T16:57:21.750Z,19.80
2019-04-30T16:59:53.494Z,19.80
2019-04-30T17:02:25.851Z,19.60
2019-04-30T17:05:03.659Z,19.40
2019-04-30T17:07:41.921Z,19.50
2019-04-30T17:10:46.828Z,19.50
2019-04-30T17:13:31.887Z,19.60
2019-04-30T17:16:21.306Z,19.40
2019-04-30T17:18:51.607Z,19.50
2019-04-30T17:21:21.995Z,19.40
2019-04-30T17:23:52.389Z,19.30
2019-04-30T17:26:22.975Z,19.10
2019-04-30T17:28:55.561Z,19.20
2019-04-30T17:31:26.186Z,19.10
2019-04-30T17:33:56.573Z,19.10
2019-04-30T17:36:26.878Z,19.00
2019-04-30T17:38:57.143Z,19.00
2019-04-30T17:41:27.466Z,19.10
2019-04-30T17:43:58.948Z,19.10
2019-04-30T17:46:29.522Z,19.10
2019-04-30T17:49:01.056Z,19.10
2019-04-30T17:51:31.426Z,18.90
2019-04-30T17:54:13.208Z,19.00
2019-04-30T17:56:44.791Z,18.90
2019-04-30T17:59:15.303Z,18.80
2019-04-30T18:01:52.617Z,18.80
2019-04-30T18:04:22.862Z,18.80
2019-04-30T18:06:53.239Z,18.70
2019-04-30T18:09:23.790Z,18.60
2019-04-30T18:11:54.115Z,18.60
2019-04-30T18:14:24.396Z,18.60
2019-04-30T18:16:54.836Z,18.60
2019-04-30T18:19:38.630Z,18.60
2019-04-30T18:22:13.894Z,18.50
2019-04-30T18:25:03.306Z,18.50
2019-04-30T18:27:45.599Z,18.50
2019-04-30T18:30:13.201Z,18.50
2019-04-30T18:32:48.557Z,18.50
2019-04-30T18:35:20.386Z,18.40
2019-04-30T18:37:51.054Z,18.40
2019-04-30T18:40:21.431Z,18.20
2019-04-30T18:42:51.789Z,18.20
2019-04-30T18:45:22.142Z,18.20
2019-04-30T18:47:52.577Z,18.20
2019-04-30T18:50:22.927Z,18.20
2019-04-30T18:52:54.857Z,18.20
2019-04-30T18:55:25.188Z,18.10
2019-04-30T18:57:57.044Z,18.10
2019-04-30T19:00:39.564Z,18.00
2019-04-30T19:03:10.158Z,18.00
2019-04-30T19:05:42.630Z,18.00
2019-04-30T19:08:29.443Z,17.90
2019-04-30T19:11:16.228Z,17.90
2019-04-30T19:14:01.845Z,17.90
2019-04-30T19:16:57.079Z,17.90
2019-04-30T19:19:46.432Z,17.90
2019-04-30T19:22:18.661Z,17.90
2019-04-30T19:24:58.196Z,17.80
2019-04-30T19:27:21.137Z,17.80
2019-04-30T19:29:51.695Z,17.70
2019-04-30T19:32:22.459Z,17.70
2019-04-30T19:34:52.970Z,17.70
2019-04-30T19:37:23.299Z,17.70
2019-04-30T19:39:53.684Z,17.60
2019-04-30T19:42:23.946Z,17.60
2019-04-30T19:45:00.662Z,17.60
2019-04-30T19:47:26.394Z,17.50
2019-04-30T19:49:56.765Z,17.40
2019-04-30T19:52:27.079Z,17.40
2019-04-30T19:54:58.692Z,17.40
2019-04-30T19:57:29.040Z,17.40
2019-04-30T19:59:59.547Z,17.30
2019-04-30T20:02:29.889Z,17.30
2019-04-30T20:05:01.281Z,17.20
2019-04-30T20:07:31.631Z,17.20
2019-04-30T20:10:04.176Z,17.20
2019-04-30T20:12:33.991Z,17.20
2019-04-30T20:15:16.423Z,17.10
2019-04-30T20:17:38.578Z,17.10
2019-04-30T20:20:09.281Z,17.00
2019-04-30T20:22:39.592Z,17.00
2019-04-30T20:25:09.975Z,16.90
2019-04-30T20:27:40.316Z,16.90
2019-04-30T20:30:10.926Z,16.90
2019-04-30T20:32:41.251Z,16.90
2019-04-30T20:35:11.508Z,16.80
2019-04-30T20:37:59.495Z,16.90
2019-04-30T20:40:43.030Z,16.80
2019-04-30T20:43:03.747Z,16.80
2019-04-30T20:45:34.082Z,16.70
2019-04-30T20:48:04.486Z,16.70
2019-04-30T20:50:34.958Z,16.70
2019-04-30T20:53:05.336Z,16.70
2019-04-30T20:55:35.799Z,16.60
2019-04-30T20:58:06.106Z,16.60
2019-04-30T21:00:36.639Z,16.60
2019-04-30T21:03:07.081Z,16.50
2019-04-30T21:05:37.488Z,16.50
2019-04-30T21:08:08.001Z,16.40
2019-04-30T21:10:39.662Z,16.30
2019-04-30T21:13:11.265Z,16.40
2019-04-30T21:15:41.735Z,16.30
2019-04-30T21:18:12.178Z,16.30
2019-04-30T21:20:42.555Z,16.20
2019-04-30T21:23:12.895Z,16.10
2019-04-30T21:25:43.315Z,16.10
2019-04-30T21:28:13.774Z,16.10
2019-04-30T21:30:44.230Z,16.10
2019-04-30T21:33:23.221Z,16.10
2019-04-30T21:36:08.356Z,16.10
2019-04-30T21:38:39.052Z,16.10
2019-04-30T21:41:10.008Z,15.90
2019-04-30T21:43:40.499Z,16.00
2019-04-30T21:46:10.937Z,16.00
2019-04-30T21:48:41.394Z,15.90
2019-04-30T21:51:12.931Z,15.80
2019-04-30T21:53:43.368Z,15.80
2019-04-30T21:56:13.704Z,15.70
2019-04-30T21:58:44.105Z,15.70
2019-04-30T22:01:25.958Z,15.60
2019-04-30T22:03:56.465Z,15.60
2019-04-30T22:06:26.715Z,15.60
2019-04-30T22:08:58.559Z,15.60
2019-04-30T22:11:29.643Z,15.60
2019-04-30T22:14:00.163Z,15.60
2019-04-30T22:16:30.558Z,15.60
2019-04-30T22:19:01.143Z,15.60
2019-04-30T22:21:31.423Z,15.60
2019-04-30T22:24:01.841Z,15.50
2019-04-30T22:26:32.168Z,15.50
2019-04-30T22:29:02.535Z,15.50
2019-04-30T22:31:32.919Z,15.50
2019-04-30T22:34:03.415Z,15.40
2019-04-30T22:36:40.832Z,15.50
2019-04-30T22:39:42.745Z,15.50
2019-04-30T22:42:39.738Z,15.40
2019-04-30T22:45:23.882Z,15.40
2019-04-30T22:47:54.407Z,15.40
2019-04-30T22:50:24.778Z,15.40
2019-04-30T22:52:55.212Z,15.30
2019-04-30T22:55:25.623Z,15.40
2019-04-30T22:57:55.920Z,15.30
2019-04-30T23:00:33.789Z,15.20
2019-04-30T23:03:07.148Z,15.20
2019-04-30T23:05:37.489Z,15.10
2019-04-30T23:08:08.031Z,15.10
2019-04-30T23:10:38.533Z,15.10
2019-04-30T23:13:08.974Z,15.10
2019-04-30T23:15:39.612Z,15.10
2019-04-30T23:18:12.783Z,15.10
2019-04-30T23:20:43.149Z,15.10
2019-04-30T23:23:13.650Z,14.90
2019-04-30T23:25:44.058Z,14.90
2019-04-30T23:28:14.604Z,14.90
2019-04-30T23:30:44.916Z,14.90
2019-04-30T23:33:15.491Z,14.80
2019-04-30T23:35:45.838Z,14.80
2019-04-30T23:38:16.188Z,14.70
2019-04-30T23:40:50.106Z,14.80
2019-04-30T23:43:20.984Z,14.70
2019-04-30T23:45:51.403Z,14.80
2019-04-30T23:48:21.998Z,14.70
2019-04-30T23:50:52.312Z,14.60
2019-04-30T23:53:22.768Z,14.50
2019-04-30T23:55:53.162Z,14.60
2019-04-30T23:58:23.587Z,14.60
